createdAt,value
2018-08-09T00:02:17.410Z,22.10
2018-08-09T00:07:19.561Z,22.10
2018-08-09T00:12:21.716Z,22.10
2018-08-09T00:17:23.910Z,22.30
2018-08-09T00:22:26.073Z,22.30
2018-08-09T00:27:28.230Z,22.30
2018-08-09T00:32:30.386Z,22.30
2018-08-09T00:37:32.637Z,22.30
2018-08-09T00:42:34.796Z,22.20
2018-08-09T00:47:36.961Z,22.20
2018-08-09T00:52:39.105Z,22.10
2018-08-09T00:57:41.309Z,22.10
2018-08-09T01:02:43.452Z,21.70
2018-08-09T01:07:45.617Z,21.80
2018-08-09T01:12:47.790Z,21.70
2018-08-09T01:17:49.956Z,22.00
2018-08-09T01:22:52.101Z,21.70
2018-08-09T01:27:54.253Z,21.50
2018-08-09T01:32:56.512Z,21.30
2018-08-09T01:37:58.549Z,21.40
2018-08-09T01:43:12.442Z,21.30
2018-08-09T01:48:14.628Z,21.20
2018-08-09T01:53:16.800Z,21.40
2018-08-09T01:58:18.985Z,21.10
2018-08-09T02:03:21.167Z,20.90
2018-08-09T02:08:23.340Z,20.70
2018-08-09T02:13:25.490Z,20.80
2018-08-09T02:18:27.686Z,20.80
2018-08-09T02:23:29.908Z,20.80
2018-08-09T02:28:32.063Z,20.50
2018-08-09T02:33:34.281Z,20.90
2018-08-09T02:38:36.442Z,20.60
2018-08-09T02:43:38.638Z,20.40
2018-08-09T02:48:40.786Z,20.30
2018-08-09T02:53:42.959Z,19.90
2018-08-09T02:58:45.142Z,20.20
2018-08-09T03:03:47.330Z,20.20
2018-08-09T03:08:49.490Z,20.10
2018-08-09T03:13:51.617Z,20.30
2018-08-09T03:18:53.758Z,20.60
2018-08-09T03:23:55.901Z,20.60
2018-08-09T03:28:58.041Z,20.50
2018-08-09T03:34:00.188Z,20.40
2018-08-09T03:39:02.400Z,20.30
2018-08-09T03:44:04.617Z,19.90
2018-08-09T03:49:06.770Z,20.00
2018-08-09T03:54:08.921Z,20.10
2018-08-09T03:59:11.078Z,19.80
2018-08-09T04:04:13.234Z,19.70
2018-08-09T04:09:15.389Z,19.90
2018-08-09T04:14:17.545Z,19.90
2018-08-09T04:19:19.693Z,19.80
2018-08-09T04:24:21.833Z,19.90
2018-08-09T04:29:23.993Z,19.70
2018-08-09T04:34:26.178Z,19.80
2018-08-09T04:39:28.326Z,20.10
2018-08-09T04:44:30.475Z,20.10
2018-08-09T04:49:32.609Z,20.10
2018-08-09T04:54:35.214Z,20.00
2018-08-09T04:59:37.345Z,20.00
2018-08-09T05:04:39.493Z,20.10
2018-08-09T05:09:41.658Z,20.30
2018-08-09T05:14:43.793Z,20.30
2018-08-09T05:19:45.940Z,20.20
2018-08-09T05:24:48.089Z,20.20
2018-08-09T05:29:50.238Z,20.40
2018-08-09T05:34:52.396Z,20.50
2018-08-09T05:39:54.546Z,20.70
2018-08-09T05:44:56.670Z,21.10
2018-08-09T05:49:58.902Z,21.00
2018-08-09T05:55:01.174Z,20.80
2018-08-09T06:00:04.905Z,20.90
2018-08-09T06:05:07.052Z,21.10
2018-08-09T06:10:09.241Z,21.40
2018-08-09T06:15:11.406Z,21.60
2018-08-09T06:20:13.633Z,22.30
2018-08-09T06:25:15.785Z,22.20
2018-08-09T06:30:17.945Z,22.30
2018-08-09T06:35:20.158Z,22.90
2018-08-09T06:40:22.383Z,24.00
2018-08-09T06:45:24.593Z,24.50
2018-08-09T06:50:26.777Z,25.10
2018-08-09T06:55:28.962Z,25.60
2018-08-09T07:00:31.142Z,25.90
2018-08-09T07:05:33.323Z,26.60
2018-08-09T07:10:35.638Z,26.90
2018-08-09T07:15:37.817Z,27.30
2018-08-09T07:20:40.035Z,27.80
2018-08-09T07:25:42.245Z,28.00
2018-08-09T07:30:44.414Z,28.10
2018-08-09T07:35:46.610Z,28.60
2018-08-09T07:40:48.766Z,29.40
2018-08-09T07:45:50.922Z,29.30
2018-08-09T07:50:53.097Z,29.80
2018-08-09T07:55:55.244Z,29.80
2018-08-09T08:00:57.433Z,30.80
2018-08-09T08:05:59.660Z,31.00
2018-08-09T08:11:03.209Z,30.00
2018-08-09T08:16:05.430Z,29.80
2018-08-09T08:21:07.648Z,29.60
2018-08-09T08:26:09.795Z,29.00
2018-08-09T08:31:11.970Z,28.90
2018-08-09T08:36:14.253Z,28.70
2018-08-09T08:41:16.425Z,28.60
2018-08-09T08:46:18.604Z,28.30
2018-08-09T08:51:20.782Z,28.30
2018-08-09T08:56:23.187Z,28.20
2018-08-09T09:01:25.368Z,28.10
2018-08-09T09:06:27.545Z,28.30
2018-08-09T09:11:29.701Z,28.50
2018-08-09T09:16:31.869Z,29.70
2018-08-09T09:21:34.092Z,30.90
2018-08-09T09:26:36.241Z,31.00
2018-08-09T09:31:38.430Z,31.40
2018-08-09T09:36:40.585Z,31.90
2018-08-09T09:41:42.722Z,31.70
2018-08-09T09:46:44.913Z,31.60
2018-08-09T09:51:47.069Z,31.40
2018-08-09T09:56:49.229Z,31.80
2018-08-09T10:01:52.173Z,31.90
2018-08-09T10:06:54.313Z,32.40
2018-08-09T10:11:56.530Z,32.90
2018-08-09T10:16:58.714Z,33.10
2018-08-09T10:22:00.981Z,32.30
2018-08-09T10:27:03.193Z,33.00
2018-08-09T10:32:05.372Z,33.10
2018-08-09T10:37:07.541Z,32.70
2018-08-09T10:42:09.722Z,33.00
2018-08-09T10:47:11.897Z,32.80
2018-08-09T10:52:14.066Z,33.10
2018-08-09T10:57:16.236Z,33.50
2018-08-09T11:02:18.717Z,32.80
2018-08-09T11:07:20.893Z,33.30
2018-08-09T11:12:23.088Z,33.60
2018-08-09T11:17:26.246Z,33.60
2018-08-09T11:22:29.049Z,33.70
2018-08-09T11:27:31.178Z,33.80
2018-08-09T11:32:33.586Z,33.60
2018-08-09T11:37:35.746Z,33.30
2018-08-09T11:42:37.897Z,33.70
2018-08-09T11:47:40.064Z,33.60
2018-08-09T11:52:42.233Z,33.60
2018-08-09T11:57:44.383Z,33.80
2018-08-09T12:02:46.538Z,33.90
2018-08-09T12:07:48.665Z,34.00
2018-08-09T12:12:50.817Z,34.10
2018-08-09T12:17:52.945Z,34.10
2018-08-09T12:22:55.172Z,34.00
2018-08-09T12:27:57.395Z,33.60
2018-08-09T12:32:59.627Z,33.70
2018-08-09T12:38:01.778Z,33.50
2018-08-09T12:43:04.248Z,33.50
2018-08-09T12:48:06.454Z,33.60
2018-08-09T12:53:08.630Z,33.50
2018-08-09T12:58:10.843Z,33.80
2018-08-09T13:03:13.038Z,33.60
2018-08-09T13:08:15.247Z,33.10
2018-08-09T13:13:17.433Z,27.60
2018-08-09T13:18:19.594Z,26.70
2018-08-09T13:23:21.778Z,25.20
2018-08-09T13:28:23.950Z,24.50
2018-08-09T13:33:26.145Z,24.00
2018-08-09T13:38:28.336Z,24.00
2018-08-09T13:43:30.523Z,24.30
2018-08-09T13:48:32.703Z,23.90
2018-08-09T13:53:34.894Z,23.80
2018-08-09T13:58:37.041Z,23.40
2018-08-09T14:03:39.193Z,23.30
2018-08-09T14:08:41.472Z,23.60
2018-08-09T14:13:43.685Z,23.80
2018-08-09T14:18:45.860Z,23.80
2018-08-09T14:23:48.049Z,23.90
2018-08-09T14:28:50.221Z,24.20
2018-08-09T14:33:52.410Z,24.50
2018-08-09T14:38:54.638Z,24.90
2018-08-09T14:43:56.812Z,25.10
2018-08-09T14:48:59.014Z,25.30
2018-08-09T14:54:01.194Z,25.10
2018-08-09T14:59:03.598Z,24.90
2018-08-09T15:04:05.976Z,25.20
2018-08-09T15:09:10.017Z,25.30
2018-08-09T15:14:12.213Z,25.30
2018-08-09T15:19:14.374Z,25.80
2018-08-09T15:24:16.555Z,26.10
2018-08-09T15:29:18.713Z,26.30
2018-08-09T15:34:20.873Z,26.20
2018-08-09T15:39:23.049Z,26.50
2018-08-09T15:44:25.214Z,26.40
2018-08-09T15:49:27.376Z,26.40
2018-08-09T15:54:29.581Z,26.50
2018-08-09T15:59:31.774Z,26.30
2018-08-09T16:04:34.031Z,26.10
2018-08-09T16:09:36.229Z,26.20
2018-08-09T16:14:38.452Z,26.60
2018-08-09T16:19:40.702Z,26.20
2018-08-09T16:24:42.911Z,25.90
2018-08-09T16:29:45.077Z,25.50
2018-08-09T16:34:47.329Z,25.40
2018-08-09T16:39:49.521Z,25.10
2018-08-09T16:44:51.718Z,25.10
2018-08-09T16:49:53.897Z,25.10
2018-08-09T16:54:56.061Z,25.00
2018-08-09T16:59:58.410Z,24.80
2018-08-09T17:05:01.415Z,24.80
2018-08-09T17:10:04.322Z,24.60
2018-08-09T17:15:10.006Z,24.50
2018-08-09T17:20:27.633Z,24.30
2018-08-09T17:25:29.858Z,24.30
2018-08-09T17:30:32.009Z,24.20
2018-08-09T17:35:34.189Z,24.30
2018-08-09T17:40:36.390Z,24.20
2018-08-09T17:45:45.329Z,24.20
2018-08-09T17:50:47.506Z,24.20
2018-08-09T17:55:49.709Z,24.10
2018-08-09T18:00:51.941Z,24.10
2018-08-09T18:05:54.134Z,24.10
2018-08-09T18:10:56.291Z,24.10
2018-08-09T18:15:58.566Z,24.00
2018-08-09T18:21:00.743Z,24.00
2018-08-09T18:26:02.951Z,23.90
2018-08-09T18:31:05.189Z,23.90
2018-08-09T18:36:07.405Z,23.70
2018-08-09T18:41:10.607Z,23.70
2018-08-09T18:46:12.788Z,23.60
2018-08-09T18:51:14.943Z,23.60
2018-08-09T18:56:17.192Z,23.50
2018-08-09T19:01:19.476Z,23.40
2018-08-09T19:06:21.693Z,23.30
2018-08-09T19:11:23.885Z,23.20
2018-08-09T19:16:26.045Z,23.10
2018-08-09T19:21:28.270Z,23.00
2018-08-09T19:26:30.522Z,23.00
2018-08-09T19:31:32.750Z,23.00
2018-08-09T19:36:34.923Z,23.10
2018-08-09T19:41:37.166Z,23.10
2018-08-09T19:46:39.364Z,23.10
2018-08-09T19:51:41.573Z,23.00
2018-08-09T19:56:43.797Z,22.90
2018-08-09T20:01:45.990Z,22.80
2018-08-09T20:06:48.289Z,22.70
2018-08-09T20:11:50.433Z,22.60
2018-08-09T20:16:52.618Z,22.60
2018-08-09T20:21:54.786Z,22.60
2018-08-09T20:26:56.954Z,22.50
2018-08-09T20:31:59.128Z,22.50
2018-08-09T20:37:01.701Z,22.50
2018-08-09T20:42:03.956Z,22.40
2018-08-09T20:47:06.133Z,22.30
2018-08-09T20:52:08.310Z,22.20
2018-08-09T20:57:10.442Z,22.20
2018-08-09T21:02:12.595Z,22.00
2018-08-09T21:07:14.780Z,22.00
2018-08-09T21:12:18.136Z,21.80
2018-08-09T21:17:20.305Z,21.80
2018-08-09T21:22:22.442Z,21.70
2018-08-09T21:27:24.594Z,21.60
2018-08-09T21:32:26.787Z,21.60
2018-08-09T21:37:28.890Z,21.50
2018-08-09T21:42:31.037Z,21.40
2018-08-09T21:47:33.193Z,21.30
2018-08-09T21:52:35.365Z,21.20
2018-08-09T21:57:37.509Z,21.20
2018-08-09T22:02:39.678Z,21.10
2018-08-09T22:07:47.690Z,21.00
2018-08-09T22:12:55.765Z,20.90
2018-08-09T22:18:03.669Z,20.80
2018-08-09T22:23:06.109Z,20.80
2018-08-09T22:28:08.307Z,20.70
2018-08-09T22:33:10.477Z,20.60
2018-08-09T22:38:12.662Z,20.60
2018-08-09T22:43:14.885Z,20.40
2018-08-09T22:48:17.081Z,20.40
2018-08-09T22:53:19.302Z,20.30
2018-08-09T22:58:21.477Z,20.20
2018-08-09T23:03:23.672Z,20.30
2018-08-09T23:08:25.872Z,20.30
2018-08-09T23:13:28.034Z,20.30
2018-08-09T23:18:30.217Z,20.20
2018-08-09T23:23:32.413Z,20.10
2018-08-09T23:28:34.593Z,20.10
2018-08-09T23:33:36.797Z,19.90
2018-08-09T23:38:38.998Z,19.80
2018-08-09T23:43:41.158Z,19.70
2018-08-09T23:48:43.360Z,19.60
2018-08-09T23:53:45.521Z,19.50
2018-08-09T23:58:47.702Z,19.40
